Time;durP1;ratioP1;P1;durP2;ratioP2;P2;SDS_P1;SDS_P2;PMS_P1;PMS_P2;Temp;Humidity;BMP_temperature;BMP_pressure;BME280_temperature;BME280_humidity;BME280_pressure;Samples;Min_cycle;Max_cycle;Signal;HPM_P1;HPM_P2
2021/06/15 00:01:48;;;;;;;19.47;9.60;;;19.00;1.00;;;-143.32;88.31;54913.50;6128652;23;20418;-92
2021/06/15 00:04:40;;;;;;;21.00;10.73;;;19.00;1.00;;;-143.32;88.33;54945.84;6128477;23;20506;-93
2021/06/15 00:07:10;;;;;;;17.80;10.40;;;18.90;1.00;;;-143.32;88.59;54921.59;6128278;23;20443;-92
2021/06/15 00:09:37;;;;;;;18.17;10.50;;;18.90;1.00;;;-143.32;89.29;54931.69;6128804;23;20459;-93
2021/06/15 00:12:09;;;;;;;21.27;10.27;;;18.80;1.00;;;-143.32;89.39;54917.56;6128707;23;20414;-93
2021/06/15 00:14:38;;;;;;;18.20;9.90;;;18.80;1.00;;;-143.32;89.73;54856.94;6129419;23;20414;-92
2021/06/15 00:17:06;;;;;;;21.40;11.00;;;18.70;1.00;;;-143.32;90.21;54905.44;6128049;23;20412;-93
2021/06/15 00:19:34;;;;;;;15.50;10.80;;;18.70;1.00;;;-143.32;90.54;54883.19;6128312;23;20428;-92
2021/06/15 00:22:05;;;;;;;17.47;10.90;;;18.60;1.00;;;-143.32;91.08;54889.25;6129479;23;20403;-94
2021/06/15 00:24:34;;;;;;;22.10;11.80;;;18.60;1.00;;;-143.32;90.92;54899.38;6128885;23;20510;-93
2021/06/15 00:27:02;;;;;;;20.67;11.43;;;18.50;1.00;;;-143.32;90.97;54901.38;6128949;23;20935;-93
2021/06/15 00:29:29;;;;;;;37.53;12.90;;;18.50;1.00;;;-143.32;91.45;54877.13;6128481;23;20415;-92
2021/06/15 01:08:06;;;;;;;21.83;14.87;;;18.10;1.00;;;-143.32;93.87;54867.03;6034274;23;20438;-92
2021/06/15 04:19:34;;;;;;;26.10;14.20;;;17.00;1.00;;;-143.32;100.00;54705.38;5906639;24;20452;-93
2021/06/15 04:22:16;;;;;;;24.37;13.47;;;17.00;1.00;;;-143.32;100.00;54715.50;6032832;23;20421;-93
2021/06/15 04:28:24;;;;;;;23.63;13.00;;;17.00;99.90;;;-143.32;100.00;54729.63;6081482;23;20925;-92
2021/06/15 04:30:52;;;;;;;22.57;12.67;;;17.10;99.90;;;-143.32;100.00;54755.91;6173939;23;20406;-90
2021/06/15 04:37:07;;;;;;;25.70;12.00;;;17.10;99.90;;;-143.32;99.72;54751.88;6182637;23;20407;-91
2021/06/15 04:39:47;;;;;;;15.10;11.77;;;17.20;99.90;;;-143.32;99.28;54731.66;6144868;23;20460;-93
2021/06/15 04:48:54;;;;;;;18.43;11.20;;;17.20;99.90;;;-143.32;99.14;54749.84;6136248;23;20419;-92
2021/06/15 04:51:34;;;;;;;20.23;11.80;;;17.20;99.90;;;-143.32;98.95;54745.81;6141853;23;20418;-91
2021/06/15 04:54:05;;;;;;;19.13;11.87;;;17.30;99.90;;;-143.32;98.75;54725.59;6141234;23;20408;-92
2021/06/15 04:56:34;;;;;;;22.00;12.30;;;17.30;99.90;;;-143.32;98.48;54729.63;6145877;23;20408;-91
2021/06/15 05:02:10;;;;;;;21.80;12.07;;;17.40;99.90;;;-143.32;98.26;54743.78;6128738;23;20452;-92
2021/06/15 05:04:43;;;;;;;27.50;11.00;;;17.30;99.90;;;-143.32;97.91;54739.75;6145533;23;20415;-92
2021/06/15 05:11:16;;;;;;;18.10;10.63;;;17.30;99.90;;;-143.32;97.34;54770.03;6148365;23;20372;-92
2021/06/15 05:13:53;;;;;;;17.03;10.43;;;17.40;99.90;;;-143.32;96.48;54770.03;6147378;23;20408;-93
2021/06/15 05:16:25;;;;;;;23.97;10.70;;;17.50;99.90;;;-143.32;96.56;54774.09;6144714;23;20418;-91
2021/06/15 05:22:49;;;;;;;12.87;9.10;;;17.60;99.60;;;-143.32;96.30;54761.97;6147132;23;20395;-91
2021/06/15 05:25:29;;;;;;;17.23;10.20;;;17.60;99.90;;;-143.32;96.52;54703.38;6148249;23;20422;-92
2021/06/15 05:27:59;;;;;;;14.87;10.00;;;17.70;99.90;;;-143.32;95.61;54731.66;6146325;23;21011;-91
2021/06/15 05:30:29;;;;;;;17.33;9.67;;;17.80;59.30;;;-143.32;95.09;54727.63;6145473;23;20733;-93
2021/06/15 05:32:57;;;;;;;18.13;9.27;;;18.00;26.80;;;-143.32;94.51;54733.69;6136854;23;20396;-92
2021/06/15 05:35:39;;;;;;;16.50;9.67;;;18.20;1.00;;;-143.32;93.87;54737.72;6138987;23;20477;-92
2021/06/15 05:38:07;;;;;;;14.30;9.10;;;18.40;1.00;;;-143.32;93.21;54705.38;6138808;23;20448;-94
2021/06/15 05:40:39;;;;;;;12.23;9.10;;;18.50;1.00;;;-143.32;92.98;54745.81;6137634;23;20396;-91
2021/06/15 05:43:09;;;;;;;12.80;9.37;;;18.50;1.00;;;-143.32;92.57;54745.81;6137129;23;20718;-96
2021/06/15 05:45:38;;;;;;;13.70;9.30;;;18.60;1.00;;;-143.32;92.26;54713.47;6127541;23;20424;-94
2021/06/15 05:48:06;;;;;;;15.47;8.40;;;18.60;1.00;;;-143.32;92.29;54725.59;6131657;23;20483;-93
2021/06/15 05:50:37;;;;;;;11.53;7.87;;;18.70;1.00;;;-143.32;91.60;54705.38;6134377;23;20472;-92
2021/06/15 05:56:48;;;;;;;14.60;7.80;;;19.30;1.00;;;-143.32;87.38;54662.97;6134891;23;20891;-93
2021/06/15 05:59:17;;;;;;;12.47;7.30;;;20.10;99.90;;;-143.32;85.87;54658.91;6134116;23;20467;-92
2021/06/15 06:01:46;;;;;;;14.70;7.57;;;20.60;99.90;;;-143.32;83.13;54679.13;6133049;23;20414;-92
2021/06/15 06:08:07;;;;;;;22.50;8.40;;;21.20;1.00;;;-143.32;82.80;54652.84;6128109;23;20424;-94
2021/06/15 06:10:39;;;;;;;14.80;7.03;;;21.30;1.00;;;-143.32;82.46;54664.97;6127958;23;20408;-94
2021/06/15 06:13:51;;;;;;;10.30;7.40;;;21.50;1.00;;;-143.32;80.65;54671.03;6137535;23;20420;-93
2021/06/15 06:16:36;;;;;;;12.10;7.10;;;21.60;1.00;;;-143.32;81.43;54664.97;6136173;23;20407;-93
2021/06/15 06:23:42;;;;;;;13.53;7.10;;;22.00;99.90;;;-143.32;78.55;54660.94;6095513;23;20538;-92
2021/06/15 06:30:55;;;;;;;10.50;7.10;;;22.10;99.90;;;-143.32;78.16;54687.22;6020246;23;20399;-93
2021/06/15 06:33:35;;;;;;;13.33;7.27;;;22.20;99.90;;;-143.32;77.94;54685.19;6061811;23;20490;-89
2021/06/15 06:36:27;;;;;;;8.73;6.70;;;22.20;99.90;;;-143.32;78.13;54703.38;6132681;23;20435;-90
2021/06/15 06:38:56;;;;;;;10.87;6.47;;;22.20;99.90;;;-143.32;78.34;54699.34;6128480;23;20392;-90
2021/06/15 06:41:29;;;;;;;13.23;6.30;;;22.10;99.90;;;-143.32;77.04;54646.78;6131881;23;20412;-91
2021/06/15 06:44:01;;;;;;;10.47;6.53;;;22.40;99.90;;;-143.32;76.92;54683.16;6127819;23;20427;-89
2021/06/15 06:49:31;;;;;;;7.63;5.77;;;22.20;99.90;;;-143.32;77.87;54735.69;6127158;23;20444;-91
2021/06/15 06:52:23;;;;;;;11.67;6.47;;;21.90;99.90;;;-143.32;78.36;54711.44;6128522;23;20376;-89
2021/06/15 06:55:04;;;;;;;9.83;6.37;;;21.80;99.90;;;-143.32;78.20;54697.31;6127880;23;20419;-91
2021/06/15 06:57:31;;;;;;;9.67;5.93;;;21.90;99.90;;;-143.32;76.34;54731.66;6130174;23;20439;-89
2021/06/15 06:59:58;;;;;;;7.97;6.10;;;22.20;99.90;;;-143.32;77.07;54709.44;6127271;23;20887;-89
2021/06/15 07:02:26;;;;;;;8.27;6.40;;;22.10;99.90;;;-143.32;76.01;54733.69;6127718;23;20419;-88
2021/06/15 07:04:55;;;;;;;16.80;6.17;;;22.20;99.90;;;-143.32;75.69;54717.50;6128389;23;20483;-89
2021/06/15 07:08:00;;;;;;;12.00;6.43;;;22.50;96.80;;;-143.32;73.94;54703.38;6132031;23;20458;-88
2021/06/15 07:10:27;;;;;;;10.23;5.83;;;22.80;1.00;;;-143.32;72.30;54687.22;6127658;23;20890;-92
2021/06/15 07:12:57;;;;;;;11.17;5.60;;;23.10;1.00;;;-143.32;71.59;54719.53;6134110;23;20458;-88
2021/06/15 07:15:24;;;;;;;10.17;5.07;;;23.20;1.00;;;-143.32;71.71;54731.66;6128155;23;20447;-90
2021/06/15 07:17:51;;;;;;;9.87;5.70;;;23.10;1.00;;;-143.32;71.28;54689.22;6126905;23;20891;-87
2021/06/15 07:20:20;;;;;;;10.97;5.80;;;23.00;1.00;;;-143.32;72.79;54735.69;6127617;23;20852;-87
2021/06/15 07:22:47;;;;;;;7.60;5.80;;;22.90;1.00;;;-143.32;73.04;54735.69;6130193;23;20764;-89
2021/06/15 07:25:17;;;;;;;13.53;6.80;;;22.70;1.00;;;-143.32;73.44;54739.75;6130362;23;20407;-89
2021/06/15 07:27:46;;;;;;;9.60;5.83;;;22.50;1.00;;;-143.32;74.45;54717.50;6131273;23;20431;-88
2021/06/15 07:30:17;;;;;;;13.70;6.40;;;22.30;1.00;;;-143.32;74.80;54725.59;6132110;23;20415;-88
2021/06/15 07:32:44;;;;;;;12.30;6.47;;;22.20;1.00;;;-143.32;74.67;54733.69;6129763;23;20467;-87
2021/06/15 07:35:12;;;;;;;8.77;6.07;;;22.10;1.00;;;-143.32;74.89;54763.97;6127653;23;20458;-89
2021/06/15 07:37:41;;;;;;;11.07;6.50;;;21.90;13.70;;;-143.32;75.74;54780.16;6127551;23;20443;-88
2021/06/15 07:40:10;;;;;;;13.17;6.17;;;21.70;99.90;;;-143.32;75.95;54768.03;6127519;23;20435;-88
2021/06/15 07:42:38;;;;;;;9.10;6.03;;;21.60;99.90;;;-143.32;77.23;54743.78;6129440;23;20412;-88
2021/06/15 07:45:07;;;;;;;10.53;5.47;;;21.50;99.90;;;-143.32;76.97;54766.00;6129823;23;20407;-86
2021/06/15 07:47:34;;;;;;;9.57;5.77;;;21.30;99.90;;;-143.32;77.33;54725.59;6130101;23;20970;-86
2021/06/15 07:50:01;;;;;;;12.10;6.10;;;21.30;99.90;;;-143.32;76.87;54786.22;6131967;23;20784;-87
2021/06/15 07:52:40;;;;;;;;;;;;;;;;;;;;;
2021/06/15 07:55:13;;;;;;;8.83;5.70;;;21.40;99.90;;;-143.32;76.61;54768.03;6132191;23;20435;-89
2021/06/15 07:57:43;;;;;;;9.73;6.47;;;21.30;99.90;;;-143.32;76.61;54820.56;6129801;23;20455;-89
2021/06/15 08:00:12;;;;;;;10.20;6.30;;;21.30;99.90;;;-143.32;76.45;54792.28;6127302;23;20744;-88
2021/06/15 08:02:39;;;;;;;10.87;6.50;;;21.30;99.90;;;-143.32;76.60;54796.31;6128834;23;20654;-89
2021/06/15 08:05:11;;;;;;;12.93;5.70;;;21.20;99.90;;;-143.32;76.60;54782.16;6131445;23;20443;-88
2021/06/15 08:07:38;;;;;;;8.57;5.43;;;21.20;99.90;;;-143.32;77.75;54768.03;6133929;23;20966;-90
2021/06/15 08:10:18;;;;;;;12.57;6.30;;;21.20;99.90;;;-143.32;76.37;54759.94;6133076;23;20728;-91
2021/06/15 08:13:24;;;;;;;14.33;5.93;;;21.40;99.90;;;-143.32;76.18;54745.81;6135575;23;20376;-89
2021/06/15 08:15:53;;;;;;;11.27;6.40;;;21.60;99.90;;;-143.32;75.55;54774.09;6098048;23;20428;-88
2021/06/15 08:18:24;;;;;;;11.50;7.13;;;21.50;99.90;;;-143.32;76.53;54792.28;6136546;23;20403;-88
2021/06/15 08:20:53;;;;;;;12.70;6.30;;;21.30;99.90;;;-143.32;77.12;54788.22;6132967;23;20435;-88
2021/06/15 08:23:21;;;;;;;13.93;7.30;;;21.20;99.90;;;-143.32;77.59;54794.28;6133374;23;20771;-90
2021/06/15 08:26:04;;;;;;;10.97;6.30;;;21.30;99.90;;;-143.32;77.04;54794.28;6132693;23;20415;-89
2021/06/15 08:28:31;;;;;;;22.20;7.40;;;21.30;99.90;;;-143.32;76.99;54812.47;6136074;23;20462;-88
2021/06/15 08:30:59;;;;;;;13.83;6.93;;;21.30;99.90;;;-143.32;77.34;54778.13;6135267;23;20504;-87
2021/06/15 08:33:27;;;;;;;18.07;7.60;;;21.30;99.90;;;-143.32;75.50;54753.88;6129747;23;20431;-88
2021/06/15 08:35:54;;;;;;;15.63;7.07;;;21.70;99.90;;;-143.32;73.63;54717.50;6129183;23;20776;-88
2021/06/15 08:38:22;;;;;;;12.37;7.20;;;22.30;99.90;;;-143.32;73.22;54677.09;6129487;23;20399;-88
2021/06/15 08:40:53;;;;;;;14.33;7.00;;;22.70;99.90;;;-143.32;71.68;54733.69;6134841;23;20404;-89
2021/06/15 08:43:24;;;;;;;14.80;5.80;;;22.90;1.00;;;-143.32;71.06;54695.28;6135674;23;20438;-89
2021/06/15 08:45:52;;;;;;;10.20;6.57;;;23.20;1.00;;;-143.32;69.19;54677.09;6134244;23;20459;-92
2021/06/15 08:48:20;;;;;;;9.93;5.37;;;23.80;1.00;;;-143.32;67.12;54656.91;6138850;23;20447;-91
2021/06/15 08:50:53;;;;;;;13.73;6.53;;;24.10;1.00;;;-143.32;66.96;54669.03;6139022;23;20434;-91
2021/06/15 08:53:21;;;;;;;8.60;5.90;;;24.50;99.90;;;-143.32;67.63;54675.09;6140039;23;20427;-91
2021/06/15 08:55:57;;;;;;;11.37;7.30;;;24.30;99.90;;;-143.32;66.79;54677.09;6137799;23;20724;-91
2021/06/15 08:58:40;;;;;;;9.70;5.90;;;24.20;99.90;;;-143.32;68.07;54662.97;6141240;23;20387;-92
2021/06/15 09:01:11;;;;;;;13.80;6.70;;;24.10;99.90;;;-143.32;68.84;54671.03;6138892;23;20419;-91
2021/06/15 09:06:36;;;;;;;11.00;7.00;;;23.60;99.90;;;-143.32;70.41;54691.25;6147001;23;20400;-92
2021/06/15 09:15:47;;;;;;;24.43;6.20;;;23.20;1.00;;;-143.32;68.63;54675.09;6135981;23;20420;-91
2021/06/15 09:18:32;;;;;;;18.73;7.87;;;23.50;1.00;;;-143.32;67.86;54693.28;6141432;23;20476;-93
2021/06/15 09:21:05;;;;;;;12.70;7.60;;;23.60;1.00;;;-143.32;67.95;54638.72;6138070;23;20495;-93
2021/06/15 09:23:34;;;;;;;11.00;7.40;;;24.00;1.00;;;-143.32;67.18;54646.78;6136741;23;20863;-94
2021/06/15 09:26:09;;;;;;;10.37;7.60;;;24.30;99.90;;;-143.32;65.59;54667.00;6134751;23;20425;-91
2021/06/15 09:28:59;;;;;;;10.77;7.83;;;24.30;99.90;;;-143.32;64.82;54644.78;6134459;23;20474;-91
2021/06/15 09:31:26;;;;;;;12.77;7.60;;;24.40;99.90;;;-143.32;65.16;54664.97;6130872;23;20380;-90
2021/06/15 09:33:57;;;;;;;20.70;7.20;;;24.40;99.90;;;-143.32;64.69;54660.94;6134721;23;20886;-90
2021/06/15 09:36:33;;;;;;;11.33;7.20;;;24.60;99.90;;;-143.32;61.73;54646.78;6131675;23;20403;-90
2021/06/15 09:39:03;;;;;;;10.20;6.50;;;24.80;99.90;;;-143.32;60.43;54681.16;6131229;23;20383;-90
2021/06/15 09:41:36;;;;;;;11.33;6.57;;;24.90;99.90;;;-143.32;61.99;54632.66;6128812;23;20501;-90
2021/06/15 09:44:18;;;;;;;9.57;6.00;;;24.90;99.90;;;-143.32;59.97;54658.91;6128623;23;20470;-89
2021/06/15 09:50:45;;;;;;;13.13;5.90;;;24.60;99.90;;;-143.32;61.63;54683.16;6127911;23;20387;-92
2021/06/15 09:53:24;;;;;;;7.83;5.43;;;24.50;99.90;;;-143.32;58.28;54693.28;6127965;23;20404;-91
2021/06/15 09:55:53;;;;;;;12.90;5.60;;;24.70;99.90;;;-143.32;57.02;54729.63;6128862;23;20478;-91
2021/06/15 10:01:58;;;;;;;13.23;4.63;;;24.80;99.90;;;-143.32;58.37;54749.84;6137410;23;20459;-92
2021/06/15 10:04:29;;;;;;;7.53;3.70;;;24.70;77.70;;;-143.32;55.89;54810.47;6129395;23;20462;-91
2021/06/15 10:06:58;;;;;;;10.23;4.07;;;24.30;1.00;;;-143.32;59.31;54794.28;6127335;23;20716;-93
2021/06/15 10:09:28;;;;;;;7.57;3.93;;;24.00;2.90;;;-143.32;60.28;54804.41;6127967;23;20404;-92
2021/06/15 10:11:58;;;;;;;4.70;3.13;;;23.90;8.00;;;-143.32;57.15;54871.06;6127655;23;20403;-89
2021/06/15 10:14:28;;;;;;;4.43;3.00;;;23.90;1.00;;;-143.32;53.12;54897.34;6129032;23;20392;-90
2021/06/15 10:16:59;;;;;;;6.73;4.47;;;23.80;1.00;;;-143.32;56.81;54846.81;6128084;23;20518;-91
2021/06/15 10:19:27;;;;;;;10.97;5.40;;;23.90;1.00;;;-143.32;58.58;54814.50;6127922;23;20391;-90
2021/06/15 10:21:56;;;;;;;8.77;4.47;;;24.00;1.00;;;-143.32;59.88;54772.06;6128083;23;20411;-91
2021/06/15 10:24:25;;;;;;;9.47;4.77;;;24.20;1.00;;;-143.32;58.99;54772.06;6128124;23;20408;-92
2021/06/15 10:26:53;;;;;;;8.97;4.23;;;24.30;1.00;;;-143.32;54.70;54834.72;6128037;23;20930;-91
2021/06/15 10:29:21;;;;;;;9.53;3.00;;;24.50;1.00;;;-143.32;51.78;54808.44;6127772;23;20498;-91
2021/06/15 10:31:52;;;;;;;7.30;2.50;;;24.80;1.00;;;-143.32;41.33;54953.91;6127454;23;20487;-90
2021/06/15 10:34:51;;;;;;;5.10;1.90;;;25.00;1.00;;;-143.32;41.07;54986.25;6127304;23;20427;-91
2021/06/15 10:37:55;;;;;;;8.27;2.30;;;25.20;1.00;;;-143.32;43.65;54978.16;6127630;23;20417;-89
2021/06/15 10:40:51;;;;;;;8.80;2.30;;;25.40;1.00;;;-143.32;47.23;54925.63;6128041;23;20496;-88
2021/06/15 10:43:30;;;;;;;11.23;2.50;;;24.90;1.00;;;-143.32;49.13;54875.13;6015761;23;20431;-91
2021/06/15 10:46:25;;;;;;;9.13;2.90;;;25.10;1.00;;;-143.32;49.72;54860.97;6126963;23;20418;-90
2021/06/15 10:48:59;;;;;;;7.70;3.00;;;25.10;1.00;;;-143.32;48.33;54885.22;6128155;23;20446;-91
2021/06/15 10:51:42;;;;;;;4.30;2.50;;;25.10;1.00;;;-143.32;48.00;54883.19;6135586;23;20402;-91
2021/06/15 10:54:41;;;;;;;2.80;2.10;;;25.10;1.00;;;-143.32;45.82;54873.09;6133051;23;20430;-91
2021/06/15 10:57:26;;;;;;;5.47;2.20;;;25.30;1.00;;;-143.32;41.89;54959.97;6128911;23;20418;-92
2021/06/15 11:00:04;;;;;;;2.23;1.57;;;25.30;1.00;;;-143.32;41.43;55022.63;6128441;23;20433;-91
2021/06/15 11:02:32;;;;;;;4.40;1.57;;;25.00;99.90;;;-143.32;41.00;54998.38;6130717;23;20403;-91
2021/06/15 11:05:00;;;;;;;3.80;1.80;;;24.90;99.90;;;-143.32;41.72;54964.03;6130294;23;20493;-92
2021/06/15 11:07:38;;;;;;;2.07;1.40;;;25.20;99.90;;;-143.32;43.21;54959.97;6128471;23;20715;-89
2021/06/15 11:10:07;;;;;;;6.20;1.90;;;25.40;99.90;;;-143.32;44.39;54949.88;6127013;23;20438;-89
2021/06/15 11:12:47;;;;;;;3.90;1.80;;;25.40;99.90;;;-143.32;43.91;54962.00;6127282;23;20439;-91
2021/06/15 11:15:21;;;;;;;2.83;1.57;;;25.40;99.90;;;-143.32;45.25;54905.44;6127209;23;20396;-90
2021/06/15 11:17:55;;;;;;;2.77;1.70;;;25.40;99.90;;;-143.32;43.27;54923.59;6128227;23;20383;-92
2021/06/15 11:24:20;;;;;;;2.53;1.57;;;25.50;99.90;;;-143.32;44.70;54962.00;6133250;23;20437;-92
2021/06/15 11:26:48;;;;;;;4.03;1.70;;;24.90;99.90;;;-143.32;43.21;54990.28;6130003;23;20455;-90
2021/06/15 11:29:45;;;;;;;3.67;1.80;;;24.90;99.90;;;-143.32;42.90;55016.56;6127229;23;20443;-91
2021/06/15 11:32:24;;;;;;;4.23;1.80;;;24.90;99.90;;;-143.32;43.61;54951.91;6126190;23;20426;-90
2021/06/15 11:35:19;;;;;;;2.40;1.30;;;25.10;99.90;;;-143.32;40.02;54976.16;6126461;23;20447;-87
2021/06/15 11:37:51;;;;;;;4.13;1.67;;;25.50;99.90;;;-143.32;40.25;54992.31;6128097;23;20409;-86
2021/06/15 11:40:30;;;;;;;9.20;1.80;;;25.50;99.90;;;-143.32;40.50;55012.53;6128576;23;20395;-86
2021/06/15 11:43:18;;;;;;;7.63;2.00;;;25.40;99.90;;;-143.32;41.10;54988.28;6127792;23;20517;-88
2021/06/15 11:45:47;;;;;;;7.60;2.10;;;25.20;99.90;;;-143.32;42.51;54970.09;6128400;23;20394;-87
2021/06/15 11:48:22;;;;;;;3.30;1.83;;;25.10;99.90;;;-143.32;42.66;55044.84;6128689;23;20451;-87
2021/06/15 11:50:52;;;;;;;3.63;2.13;;;24.90;99.90;;;-143.32;43.80;55028.69;6128852;23;20715;-89
2021/06/15 11:53:50;;;;;;;4.97;1.90;;;24.60;99.90;;;-143.32;44.55;55006.47;6128294;23;21300;-87
2021/06/15 11:56:19;;;;;;;9.40;2.30;;;24.50;99.90;;;-143.32;45.50;54994.34;6129272;23;20863;-88
2021/06/15 11:58:47;;;;;;;6.53;2.20;;;24.40;99.90;;;-143.32;43.35;55038.78;6128416;23;20411;-91
2021/06/15 12:01:17;;;;;;;3.20;1.70;;;24.50;99.90;;;-143.32;42.47;55028.69;6127938;23;20498;-90
2021/06/15 12:03:46;;;;;;;6.10;1.77;;;24.50;99.90;;;-143.32;43.80;55032.72;6128491;23;20446;-88
2021/06/15 12:06:15;;;;;;;8.23;3.03;;;24.30;99.90;;;-143.32;46.42;54982.22;6128399;23;20477;-88
2021/06/15 12:08:47;;;;;;;17.77;2.50;;;24.40;99.90;;;-143.32;47.10;54990.28;6128573;23;20485;-91
2021/06/15 12:11:16;;;;;;;5.40;2.00;;;24.40;99.90;;;-143.32;47.68;54947.84;6130130;23;20454;-90
2021/06/15 12:13:48;;;;;;;3.93;1.90;;;24.50;99.90;;;-143.32;45.77;54988.28;6129408;23;20899;-90
2021/06/15 12:16:24;;;;;;;5.13;1.90;;;24.50;99.90;;;-143.32;44.92;55014.53;6130268;23;20534;-90
2021/06/15 12:18:56;;;;;;;5.23;1.93;;;24.60;99.90;;;-143.32;41.32;55052.94;6129451;23;20429;-92
2021/06/15 12:21:26;;;;;;;5.57;1.80;;;24.50;99.90;;;-143.32;41.50;55075.16;6128830;23;20431;-91
2021/06/15 12:23:55;;;;;;;3.33;1.60;;;24.60;99.90;;;-143.32;39.18;55081.22;6128955;23;20751;-91
2021/06/15 12:26:27;;;;;;;3.47;1.70;;;24.70;99.90;;;-143.32;39.01;55085.25;6129679;23;20902;-91
2021/06/15 12:28:58;;;;;;;3.77;1.50;;;24.80;99.90;;;-143.32;39.01;55065.06;6127983;23;20447;-91
2021/06/15 12:31:27;;;;;;;2.83;1.60;;;24.80;99.90;;;-143.32;37.06;55139.81;6129141;23;20912;-91
2021/06/15 12:33:58;;;;;;;4.80;1.50;;;24.90;99.90;;;-143.32;34.65;55214.59;6128239;23;20407;-91
2021/06/15 12:36:27;;;;;;;7.93;1.80;;;25.00;99.90;;;-143.32;35.21;55206.50;6127938;23;20863;-89
2021/06/15 12:38:55;;;;;;;7.43;1.40;;;25.00;99.90;;;-143.32;34.42;55202.47;6127998;23;20408;-91
2021/06/15 12:41:25;;;;;;;10.60;1.63;;;25.20;99.90;;;-143.32;34.02;55222.69;6127966;23;20430;-90
2021/06/15 12:43:54;;;;;;;8.33;1.40;;;25.10;99.90;;;-143.32;34.85;55206.50;6128377;23;20576;-90
2021/06/15 12:46:29;;;;;;;2.30;1.40;;;25.20;99.90;;;-143.32;33.74;55186.31;6127261;23;20426;-90
2021/06/15 12:49:00;;;;;;;5.23;1.67;;;25.40;99.90;;;-143.32;33.83;55198.44;6127256;23;20458;-91
2021/06/15 12:51:32;;;;;;;2.27;1.20;;;25.60;99.90;;;-143.32;34.55;55186.31;6128829;23;20459;-89
2021/06/15 12:54:06;;;;;;;3.60;1.30;;;25.60;99.90;;;-143.32;34.67;55182.25;6128135;23;20439;-90
2021/06/15 12:56:34;;;;;;;4.20;1.40;;;25.60;99.90;;;-143.32;33.58;55200.44;6128200;23;20447;-89
2021/06/15 12:59:14;;;;;;;2.53;1.40;;;25.70;99.90;;;-143.32;33.57;55200.44;6127854;23;20474;-90
2021/06/15 13:01:42;;;;;;;2.40;1.43;;;25.50;99.90;;;-143.32;33.38;55230.75;6127657;23;20493;-90
2021/06/15 13:07:57;;;;;;;2.20;1.20;;;25.60;99.90;;;-143.32;32.32;55267.13;6127949;23;20406;-91
2021/06/15 13:10:25;;;;;;;4.80;1.43;;;25.50;99.90;;;-143.32;33.31;55234.81;6127954;23;20400;-90
2021/06/15 13:12:55;;;;;;;4.33;1.27;;;25.40;99.90;;;-143.32;32.45;55238.84;6128104;23;20755;-90
2021/06/15 13:15:25;;;;;;;3.60;1.50;;;25.40;99.90;;;-143.32;32.47;55263.09;6128076;23;20463;-89
2021/06/15 13:17:57;;;;;;;1.60;1.50;;;25.30;99.90;;;-143.32;32.50;55285.31;6127640;23;20400;-91
2021/06/15 13:20:25;;;;;;;3.80;1.10;;;25.30;99.90;;;-143.32;33.01;55246.94;6127891;23;20407;-89
2021/06/15 13:22:53;;;;;;;3.07;1.30;;;25.40;99.90;;;-143.32;32.75;55267.13;6128047;23;20407;-91
2021/06/15 13:25:23;;;;;;;5.20;1.80;;;25.50;99.90;;;-143.32;32.69;55267.13;6127917;23;20421;-88
2021/06/15 13:27:57;;;;;;;7.33;1.20;;;25.50;99.90;;;-143.32;33.14;55246.94;6127825;23;20439;-89
2021/06/15 13:30:29;;;;;;;5.97;1.50;;;25.60;99.90;;;-143.32;33.03;55202.47;6128523;23;20392;-87
2021/06/15 13:33:08;;;;;;;4.57;1.50;;;25.60;99.90;;;-143.32;33.86;55212.56;6127975;23;20423;-89
2021/06/15 13:35:39;;;;;;;4.73;1.60;;;25.60;99.90;;;-143.32;32.91;55265.13;6128262;23;20396;-91
2021/06/15 13:38:09;;;;;;;4.13;1.50;;;25.50;99.90;;;-143.32;33.39;55267.13;6127769;23;20395;-88
2021/06/15 13:40:39;;;;;;;2.53;1.30;;;25.00;99.90;;;-143.32;33.37;55226.72;6127050;23;20431;-90
2021/06/15 13:43:23;;;;;;;4.17;1.40;;;25.10;99.90;;;-143.32;33.08;55293.41;6127547;23;20447;-89
2021/06/15 13:45:53;;;;;;;2.40;1.30;;;25.20;99.90;;;-143.32;33.03;55255.00;6127507;23;20443;-90
2021/06/15 13:48:21;;;;;;;5.30;1.43;;;25.20;99.90;;;-143.32;32.75;55269.16;6127688;23;20588;-88
2021/06/15 13:50:50;;;;;;;4.10;1.30;;;25.20;99.90;;;-143.32;33.33;55259.06;6127829;23;20424;-88
2021/06/15 13:53:23;;;;;;;8.23;1.70;;;25.10;99.90;;;-143.32;33.22;55287.34;6127889;23;20478;-88
2021/06/15 13:55:50;;;;;;;4.27;1.50;;;25.10;99.90;;;-143.32;33.35;55267.13;6127962;23;20423;-87
2021/06/15 13:58:17;;;;;;;3.87;1.60;;;25.20;99.90;;;-143.32;33.48;55269.16;6127078;23;20415;-89
2021/06/15 14:00:46;;;;;;;3.90;1.50;;;25.10;99.90;;;-143.32;34.43;55261.06;6127159;23;20422;-88
2021/06/15 14:03:16;;;;;;;4.73;1.23;;;25.00;99.90;;;-143.32;34.51;55206.50;6127094;23;20431;-89
2021/06/15 14:05:47;;;;;;;5.87;1.60;;;25.10;99.90;;;-143.32;33.91;55259.06;6128261;23;20407;-89
2021/06/15 14:08:14;;;;;;;8.60;1.50;;;25.20;99.90;;;-143.32;35.23;55216.63;6127443;23;20418;-89
2021/06/15 14:10:41;;;;;;;6.80;1.70;;;24.90;99.90;;;-143.32;35.97;55196.41;6127025;23;20439;-88
2021/06/15 14:13:08;;;;;;;8.63;2.10;;;24.90;99.90;;;-143.32;35.16;55228.75;6127036;23;20399;-88
2021/06/15 14:15:36;;;;;;;6.03;1.73;;;25.00;99.90;;;-143.32;34.87;55234.81;6126644;23;20934;-88
2021/06/15 14:18:05;;;;;;;6.40;1.60;;;25.00;99.90;;;-143.32;35.48;55228.75;6126935;23;20407;-88
2021/06/15 14:20:35;;;;;;;5.37;1.83;;;24.90;99.90;;;-143.32;35.97;55198.44;6127114;23;20961;-88
2021/06/15 14:23:04;;;;;;;2.83;1.50;;;24.80;99.90;;;-143.32;35.89;55232.78;6128071;23;20447;-87
2021/06/15 14:25:36;;;;;;;4.77;1.40;;;24.90;99.90;;;-143.32;35.14;55244.91;6126725;23;20411;-88
2021/06/15 14:28:05;;;;;;;3.73;1.50;;;24.90;99.90;;;-143.32;35.93;55234.81;6127857;23;20470;-88
2021/06/15 14:30:33;;;;;;;2.70;1.27;;;24.80;99.90;;;-143.32;36.16;55200.44;6126974;23;20493;-86
2021/06/15 14:33:00;;;;;;;5.60;1.47;;;24.90;99.90;;;-143.32;36.01;55244.91;6126659;23;20407;-88
2021/06/15 14:35:28;;;;;;;4.60;1.50;;;24.80;99.90;;;-143.32;35.84;55224.69;6127498;23;20709;-87
2021/06/15 14:37:56;;;;;;;4.00;1.60;;;24.90;99.90;;;-143.32;35.67;55238.84;6127073;23;20407;-88
2021/06/15 14:40:24;;;;;;;4.13;1.73;;;24.80;99.90;;;-143.32;36.10;55232.78;6127221;23;20404;-88
2021/06/15 14:42:51;;;;;;;3.17;1.37;;;24.50;99.90;;;-143.32;36.26;55228.75;6125997;23;20439;-87
2021/06/15 14:45:20;;;;;;;6.03;1.53;;;24.50;99.90;;;-143.32;36.50;55216.63;6126847;23;20407;-88
2021/06/15 14:47:52;;;;;;;4.40;1.70;;;24.60;99.90;;;-143.32;36.26;55190.34;6127093;23;20468;-88
2021/06/15 14:50:19;;;;;;;3.10;1.60;;;24.90;99.90;;;-143.32;36.81;55196.41;6126742;23;20705;-87
2021/06/15 14:52:47;;;;;;;5.80;1.50;;;25.10;99.90;;;-143.32;36.22;55192.38;6126960;23;20438;-88
2021/06/15 14:55:17;;;;;;;5.13;1.70;;;25.20;99.90;;;-143.32;35.91;55210.56;6126794;23;20884;-87
2021/06/15 14:57:46;;;;;;;4.13;1.63;;;25.20;99.90;;;-143.32;36.12;55210.56;6126929;23;20404;-88
2021/06/15 15:00:15;;;;;;;6.60;1.70;;;25.10;99.90;;;-143.32;36.17;55206.50;6126573;23;20452;-88
2021/06/15 15:02:44;;;;;;;4.20;1.83;;;25.10;99.90;;;-143.32;36.77;55194.38;6125301;23;20411;-88
2021/06/15 15:05:12;;;;;;;7.43;1.90;;;25.10;99.90;;;-143.32;37.32;55206.50;6127054;23;20407;-88
2021/06/15 15:07:43;;;;;;;4.47;1.60;;;25.10;99.90;;;-143.32;37.01;55200.44;6127133;23;20407;-90
2021/06/15 15:10:12;;;;;;;5.80;2.00;;;25.10;99.90;;;-143.32;37.86;55164.06;6126316;23;20462;-88
2021/06/15 15:12:40;;;;;;;2.63;1.40;;;25.00;99.90;;;-143.32;38.25;55141.84;6126089;23;20458;-88
2021/06/15 15:15:09;;;;;;;4.10;2.30;;;25.00;99.90;;;-143.32;37.91;55202.47;6127199;23;20414;-87
2021/06/15 15:17:37;;;;;;;3.80;1.70;;;25.00;99.90;;;-143.32;37.23;55182.25;6127156;23;20421;-87
2021/06/15 15:20:08;;;;;;;6.47;1.87;;;25.10;99.90;;;-143.32;37.46;55153.97;6126502;23;20407;-87
2021/06/15 15:22:36;;;;;;;7.23;1.90;;;25.00;99.90;;;-143.32;38.00;55190.34;6126609;23;20887;-87